Capitol Logistics 267


KORD
Chicago O'Hare International Airport
Chicago, Illinois, US
KMIA
Miami International Airport
Miami, Florida, US

Route Details

Aircraft Information
Primary: Boeing 747-400BCF
Backup: Boeing 777-200LRF
Route Data
Distance: 1043nm
Sched. Duration: 2h 29m
Avg. Duration: 2h 58m (+29m)
Times Flown: 4
Recm'd Route: DENNT DARCY DREGS DONVE BNA J73 WYATT BULZI NICKI Q81 ENDEW JUULI SSCOT5
Planned Altitude: 41,000ft
Origin Wx: KORD 271151Z 28006KT 10SM -SN FEW023 SCT031 OVC050 M03/M08 A3004 RMK AO2 SNB48 SLP180 4/001 P0000 60000 T10281078 11028 21033 56005
Dest. Wx: KMIA 271153Z 33010G19KT 10SM SCT016 BKN028 OVC150 18/13 A3005 RMK AO2 SLP177 70026 T01830128 10211 20183 53020 $
Notes:

Financial History
Total Freight: 318,586lbs
Average Load: 79,647lbs/flt
Fuel Used: 195,290lbs
Avg. Fuel Used: 48,823lbs/flt
Fuel Expense: $240,207
Avg. Fuel Expense: $60,052
Avg. Fuel Cost: $1.23/lbs
Total Gross Income: $426,905
Pilot Pay: $676
Total Expenses: $46,314
Total Revenue: $138,191
Average Revenue: $106,726.31